createdAt,value
2019-02-25T07:44:41.665Z,99.90
2019-02-25T08:37:02.283Z,99.90
2019-02-25T08:39:31.702Z,99.90
2019-02-25T08:47:16.247Z,99.90
2019-02-25T08:49:46.489Z,99.90
2019-02-25T08:52:15.081Z,99.90
2019-02-25T09:02:08.426Z,99.90
2019-02-25T09:04:36.974Z,99.90
2019-02-25T09:07:05.621Z,99.90
2019-02-25T09:09:34.170Z,99.90
2019-02-25T09:14:30.966Z,99.90
2019-02-25T09:19:27.761Z,99.90
2019-02-25T09:21:56.407Z,99.90
2019-02-25T09:24:24.957Z,99.90
2019-02-25T09:26:53.603Z,99.90
2019-02-25T09:29:22.156Z,99.50
2019-02-25T09:34:18.950Z,99.50
2019-02-25T09:36:47.530Z,98.60
2019-02-25T09:39:16.848Z,98.10
2019-02-25T09:41:45.562Z,98.20
2019-02-25T09:44:14.177Z,98.20
2019-02-25T09:49:10.972Z,97.20
2019-02-25T09:51:39.556Z,97.40
2019-02-25T09:54:08.109Z,97.10
2019-02-25T09:56:37.382Z,97.20
2019-02-25T09:59:06.210Z,97.00
2019-02-25T10:01:34.822Z,96.90
2019-02-25T10:04:03.401Z,96.70
2019-02-25T10:11:28.415Z,95.90
2019-02-25T10:13:56.989Z,95.10
2019-02-25T10:16:25.537Z,94.70
2019-02-25T10:18:54.115Z,95.30
2019-02-25T10:21:22.662Z,94.70
2019-02-25T10:23:51.241Z,94.20
2019-02-25T10:28:48.040Z,94.40
2019-02-25T10:31:17.530Z,94.10
2019-02-25T10:33:46.171Z,93.80
2019-02-25T10:36:14.785Z,93.60
2019-02-25T10:38:43.363Z,93.50
2019-02-25T10:41:11.911Z,93.00
2019-02-25T10:43:40.490Z,72.20
2019-02-25T10:46:10.784Z,92.50
2019-02-25T10:48:39.265Z,92.90
2019-02-25T10:51:09.335Z,92.50
2019-02-25T10:53:38.025Z,92.70
2019-02-25T10:56:19.915Z,92.20
2019-02-25T10:58:48.841Z,92.70
2019-02-25T11:01:19.391Z,93.30
2019-02-25T11:03:48.264Z,92.80
2019-02-25T11:08:47.771Z,93.30
2019-02-25T11:11:22.647Z,93.60
2019-02-25T11:13:50.816Z,93.70
2019-02-25T11:16:20.420Z,93.30
2019-02-25T11:18:50.613Z,93.10
2019-02-25T11:21:19.374Z,92.70
2019-02-25T11:23:49.221Z,92.70
2019-02-25T11:26:18.146Z,93.20
2019-02-25T11:28:46.725Z,93.40
2019-02-25T11:31:17.157Z,93.20
2019-02-25T11:33:45.502Z,93.70
2019-02-25T11:36:15.527Z,93.30
2019-02-25T11:38:44.345Z,93.80
2019-02-25T11:41:12.965Z,94.00
2019-02-25T11:46:11.654Z,93.20
2019-02-25T11:48:40.234Z,93.10
2019-02-25T11:51:08.851Z,93.50
2019-02-25T11:56:05.634Z,93.90
2019-02-25T11:58:34.184Z,93.50
2019-02-25T12:01:02.925Z,75.00
2019-02-25T12:03:31.473Z,93.30
2019-02-25T12:06:00.051Z,93.40
2019-02-25T12:08:28.607Z,93.70
2019-02-25T12:10:57.178Z,94.30
2019-02-25T12:13:25.797Z,94.50
2019-02-25T12:15:54.451Z,93.70
2019-02-25T12:18:23.000Z,90.50
2019-02-25T12:20:51.645Z,94.00
2019-02-25T12:23:20.194Z,93.50
2019-02-25T12:25:48.770Z,93.40
2019-02-25T12:28:17.317Z,93.70
2019-02-25T12:30:45.898Z,94.10
2019-02-25T12:33:14.445Z,94.20
2019-02-25T12:35:43.090Z,75.10
2019-02-25T12:38:11.639Z,94.10
2019-02-25T12:40:40.289Z,93.60
2019-02-25T12:45:37.082Z,94.40
2019-02-25T12:48:05.634Z,94.30
2019-02-25T12:50:34.214Z,94.30
2019-02-25T12:55:31.001Z,94.70
2019-02-25T12:57:59.553Z,94.90
2019-02-25T13:00:28.141Z,83.90
2019-02-25T13:02:56.696Z,95.10
2019-02-25T13:05:26.010Z,95.20
2019-02-25T13:07:54.586Z,95.10
2019-02-25T13:12:51.884Z,95.20
2019-02-25T13:15:24.732Z,95.20
2019-02-25T13:20:21.633Z,95.60
2019-02-25T13:22:50.356Z,95.80
2019-02-25T13:25:24.697Z,95.80
2019-02-25T13:32:51.463Z,96.30
2019-02-25T13:35:20.077Z,96.00
2019-02-25T13:37:48.723Z,96.20
2019-02-25T13:40:18.020Z,96.50
2019-02-25T13:42:46.600Z,96.40
2019-02-25T13:45:16.686Z,96.00
2019-02-25T13:47:45.261Z,96.40
2019-02-25T13:52:48.255Z,96.50
2019-02-25T13:55:13.742Z,96.30
2019-02-25T13:57:42.385Z,96.50
2019-02-25T14:00:19.391Z,95.90
2019-02-25T14:05:16.510Z,96.20
2019-02-25T14:07:45.258Z,96.40
2019-02-25T14:15:14.949Z,96.30
2019-02-25T14:20:14.161Z,96.40
2019-02-25T14:22:42.809Z,96.20
2019-02-25T14:25:14.065Z,96.20
2019-02-25T14:27:42.782Z,96.00
2019-02-25T14:30:21.974Z,95.30
2019-02-25T14:32:53.029Z,95.60
2019-02-25T14:35:29.032Z,95.50
2019-02-25T14:38:02.464Z,95.50
2019-02-25T14:40:32.120Z,95.30
2019-02-25T14:43:00.557Z,95.30
2019-02-25T14:45:32.129Z,95.20
2019-02-25T14:48:03.213Z,95.30
2019-02-25T14:50:31.066Z,95.20
2019-02-25T14:55:29.573Z,95.00
2019-02-25T14:58:02.195Z,95.40
2019-02-25T15:00:31.419Z,95.10
2019-02-25T15:02:58.950Z,95.20
2019-02-25T15:07:56.256Z,95.50
2019-02-25T15:17:52.952Z,95.70
2019-02-25T15:20:23.521Z,95.50
2019-02-25T15:22:52.880Z,95.70
2019-02-25T15:25:21.805Z,94.90
2019-02-25T15:27:50.425Z,96.10
2019-02-25T15:30:27.061Z,96.40
2019-02-25T15:32:58.494Z,97.10
2019-02-25T15:43:17.558Z,97.20
2019-02-25T15:45:45.481Z,97.20
2019-02-25T15:48:19.441Z,97.80
2019-02-25T15:50:50.683Z,97.60
2019-02-25T15:53:19.973Z,95.50
2019-02-25T15:55:48.600Z,98.30
2019-02-25T15:58:18.110Z,98.60
2019-02-25T16:00:47.467Z,98.90
2019-02-25T16:03:18.389Z,99.20
2019-02-25T16:05:46.545Z,98.90
2019-02-25T16:08:18.974Z,93.40
2019-02-25T16:10:47.012Z,99.40
2019-02-25T16:13:16.830Z,99.70
2019-02-25T16:15:45.480Z,99.90
2019-02-25T16:18:14.198Z,99.90
2019-02-25T16:20:45.929Z,99.90
2019-02-25T16:23:13.357Z,99.90
2019-02-25T16:25:42.258Z,99.90
2019-02-25T16:28:12.578Z,99.90
2019-02-25T16:30:42.443Z,99.90
2019-02-25T16:33:12.633Z,99.90
2019-02-25T16:35:43.045Z,99.90
2019-02-25T16:38:11.758Z,99.90
2019-02-25T16:40:40.329Z,99.90
2019-02-25T16:43:12.070Z,99.90
2019-02-25T16:45:41.861Z,99.90
2019-02-25T16:48:09.894Z,99.90
2019-02-25T16:50:39.797Z,99.90
2019-02-25T16:53:10.961Z,99.90
2019-02-25T16:55:40.476Z,99.90
2019-02-25T16:58:12.598Z,99.90
2019-02-25T17:00:41.626Z,99.90
2019-02-25T17:03:11.231Z,98.80
2019-02-25T17:05:42.303Z,99.90
2019-02-25T17:08:12.689Z,99.90
2019-02-25T17:10:41.535Z,99.90
2019-02-25T17:13:10.885Z,99.90
2019-02-25T17:15:40.477Z,99.90
2019-02-25T17:18:09.404Z,99.90
2019-02-25T17:20:38.037Z,99.90
2019-02-25T17:23:09.562Z,99.90
2019-02-25T17:25:38.909Z,99.90
2019-02-25T17:28:08.165Z,99.90
2019-02-25T17:30:40.540Z,99.90
2019-02-25T17:33:10.018Z,99.90
2019-02-25T17:35:39.106Z,99.90
2019-02-25T17:38:07.726Z,99.90
2019-02-25T17:40:36.301Z,99.90
2019-02-25T17:43:05.021Z,99.90
2019-02-25T17:45:34.485Z,99.90
2019-02-25T17:48:06.018Z,99.90
2019-02-25T17:50:36.594Z,99.90
2019-02-25T17:53:05.060Z,99.90
2019-02-25T17:55:36.218Z,99.90
2019-02-25T17:58:05.238Z,99.90
2019-02-25T18:00:39.541Z,99.90
2019-02-25T18:03:08.957Z,99.90
2019-02-25T18:05:40.059Z,99.90
2019-02-25T18:08:10.560Z,99.90
2019-02-25T18:10:39.282Z,99.90
2019-02-25T18:13:08.684Z,99.90
2019-02-25T18:15:38.267Z,99.90
2019-02-25T18:18:09.299Z,99.90
2019-02-25T18:20:38.925Z,99.90
2019-02-25T18:33:05.357Z,99.90
2019-02-25T18:35:36.243Z,99.90
2019-02-25T18:38:06.969Z,99.90
2019-02-25T18:40:35.840Z,99.90
2019-02-25T18:43:06.541Z,99.90
2019-02-25T18:45:36.136Z,99.90
2019-02-25T18:48:07.042Z,99.90
2019-02-25T18:50:36.029Z,99.90
2019-02-25T18:53:05.171Z,99.90
2019-02-25T18:55:34.305Z,99.90
2019-02-25T18:58:05.109Z,99.90
2019-02-25T19:00:45.323Z,99.90
2019-02-25T19:03:13.407Z,99.90
2019-02-25T19:05:42.133Z,99.90
2019-02-25T19:08:22.722Z,99.90
2019-02-25T19:13:23.279Z,99.90
2019-02-25T19:15:53.092Z,99.90
2019-02-25T19:18:22.154Z,99.90
2019-02-25T19:20:51.033Z,99.90
2019-02-25T19:23:19.810Z,99.90
2019-02-25T19:25:48.355Z,99.90
2019-02-25T19:33:19.498Z,99.90
2019-02-25T19:35:45.451Z,99.90
2019-02-25T19:38:15.303Z,99.90
2019-02-25T19:40:46.614Z,99.90
2019-02-25T19:43:14.761Z,99.90
2019-02-25T19:45:45.338Z,99.90
2019-02-25T19:48:13.710Z,99.90
2019-02-25T19:50:50.680Z,99.90
2019-02-25T19:53:14.698Z,99.90
2019-02-25T19:55:43.992Z,99.90
2019-02-25T19:58:13.029Z,99.90
2019-02-25T20:00:41.602Z,99.90
2019-02-25T20:03:10.321Z,99.90
2019-02-25T20:05:41.665Z,99.90
2019-02-25T20:13:08.506Z,99.90
2019-02-25T20:15:39.656Z,99.90
2019-02-25T20:18:07.661Z,99.90
2019-02-25T20:20:38.479Z,99.90
2019-02-25T20:25:37.090Z,99.90
2019-02-25T20:28:05.717Z,99.90
2019-02-25T20:30:34.362Z,99.90
2019-02-25T20:33:03.838Z,99.90
2019-02-25T20:35:33.140Z,99.90
2019-02-25T20:38:04.642Z,99.90
2019-02-25T20:40:33.027Z,99.90
2019-02-25T20:45:35.386Z,99.90
2019-02-25T20:48:04.637Z,99.90
2019-02-25T20:50:33.487Z,99.90
2019-02-25T20:53:05.580Z,99.90
2019-02-25T20:55:34.500Z,99.90
2019-02-25T20:58:02.530Z,99.90
2019-02-25T21:03:01.077Z,99.90
2019-02-25T21:05:29.625Z,99.90
2019-02-25T21:17:57.742Z,99.90
2019-02-25T21:20:28.965Z,99.90
2019-02-25T21:22:57.819Z,99.90
2019-02-25T21:25:29.090Z,99.90
2019-02-25T21:27:59.247Z,99.90
2019-02-25T21:30:27.361Z,99.90
2019-02-25T21:32:57.202Z,99.90
2019-02-25T21:35:28.252Z,99.90
2019-02-25T21:37:56.470Z,99.90
2019-02-25T21:40:27.803Z,99.90
2019-02-25T21:42:56.702Z,99.90
2019-02-25T21:45:29.029Z,99.90
2019-02-25T21:47:56.527Z,99.90
2019-02-25T21:50:28.811Z,99.90
2019-02-25T21:52:56.465Z,99.90
2019-02-25T21:57:56.886Z,99.90
2019-02-25T22:00:27.141Z,99.90
2019-02-25T22:02:56.263Z,99.90
2019-02-25T22:07:57.761Z,99.90
2019-02-25T22:10:26.200Z,99.90
2019-02-25T22:12:54.795Z,99.90
2019-02-25T22:17:53.401Z,99.90
2019-02-25T22:20:24.289Z,99.90
2019-02-25T22:22:54.941Z,99.90
2019-02-25T22:25:23.125Z,99.90
2019-02-25T22:27:51.702Z,99.90
2019-02-25T22:30:20.318Z,99.90
2019-02-25T22:32:48.968Z,99.90
2019-02-25T22:35:17.515Z,99.90
2019-02-25T22:37:49.270Z,99.90
2019-02-25T22:40:19.362Z,99.90
2019-02-25T22:47:48.049Z,99.90
2019-02-25T23:15:11.302Z,99.90
2019-02-25T23:17:40.678Z,99.90
2019-02-25T23:22:39.338Z,99.90
2019-02-25T23:25:10.093Z,99.90
2019-02-25T23:27:38.978Z,99.90
2019-02-25T23:35:11.464Z,99.90
2019-02-25T23:37:39.302Z,99.90
2019-02-25T23:42:40.107Z,99.90
2019-02-25T23:45:15.321Z,99.90
2019-02-25T23:52:42.423Z,99.90
2019-02-25T23:55:14.389Z,99.90
